Carrasco International /General C L Berisso Airport
SUMU : now visible

Airfield :











YOU CAN JOIN US ON...

 
LOGIN :

Register | Disclaimer

   EN    FR    IT 

 









Legend :    VFR   Marginal VFR   IFR   Intensive IFR   Very Intensive IFR
Visi :
Ceiling :
>= 8 km
>= 3000ft
5 to 8 km
1000 to 3000 ft
1500m to 5 km
500 to 1000 ft
800 to 1500m
200 to 500 ft
< 800m
< 200 ft
Symbols :   Thunderstorms  Fog  Heavy snow  Heavy precipitations  Wind > 20 kt







- Airport Elevation : 105 ft
- IATA code : MVD


SUMU - Carrasco International /General C L Berisso

CURRENT METAR :
  • 250700Z 19008KT 9999 -RA BKN002 OVC070 14/13 Q0996 TEMPO DZ BR

EXPIRED METARs :
  • 250635Z 19009KT 8000 RA BKN002 OVC070 14/13 Q0997
  • 250600Z 22015KT 4000 RA BKN030 OVC070 14/13 Q0997 TEMPO DZ BR
  • 250529Z 25011KT 7000 RA BKN003 OVC070 17/16 Q0996
  • 250500Z 33015KT 9999 SCT020 BKN070 20/17 Q0995 TEMPO DZ BR

TAF SUMU
Valid from the 25 at 06:00 until the 26 at 06:00 UTC


250530Z 2506/2606 35015KT 9999 SCT020 OVC070 TX15/2510Z TN11/2518Z
PROB30
TEMPO 2506/2511 5000 TSRA FEW040CB
BECMG 2509/2511 22020KT 9999 BKN017
TEMPO 2509/2518 23020G35KT 7000 SHRA
SUEO FIR / South America



MET'MAP, your aeronautical weather chart ! - Copyright ORBIFLY December 2007 - Disclaimer

ORBIFLY MET'MAP TEAM :

Programming & Development : Alexandra Zaïnal
Concept & Development : Baudouin d'Aumeries
Co-Development & Prog : Marc-Olivier Méhu
Technical & hardware support : Manuel Goepfert

Contact : metmap@orbifly.com




SOURCES & CREDITS :

   NOAA       Earth
Advisory